Time;durP1;ratioP1;P1;durP2;ratioP2;P2;SDS_P1;SDS_P2;PMS_P1;PMS_P2;Temp;Humidity;BMP_temperature;BMP_pressure;BME280_temperature;BME280_humidity;BME280_pressure;Samples;Min_cycle;Max_cycle;Signal;HPM_P1;HPM_P2
2023/04/11 00:01:48;;;;;;;29.00;23.90;;;;;;;7.71;88.43;100111.27;109023;1255;72983;-75
2023/04/11 00:04:19;;;;;;;30.40;24.70;;;;;;;7.76;88.44;100106.27;108841;1255;69673;-75
2023/04/11 00:06:47;;;;;;;32.20;26.40;;;;;;;7.74;88.12;100107.50;109024;1255;71012;-77
2023/04/11 00:09:15;;;;;;;32.40;23.10;;;;;;;7.68;88.42;100108.36;109223;1255;60773;-77
2023/04/11 00:11:42;;;;;;;28.60;22.70;;;;;;;7.74;88.36;100109.95;109271;1254;58240;-78
2023/04/11 00:14:09;;;;;;;30.50;25.50;;;;;;;7.74;88.32;100107.10;109331;1255;71299;-78
2023/04/11 00:16:37;;;;;;;26.20;19.80;;;;;;;7.69;88.41;100102.86;109341;1255;70146;-77
2023/04/11 00:19:06;;;;;;;25.40;19.50;;;;;;;7.73;87.92;100099.52;109290;1255;72609;-77
2023/04/11 00:21:34;;;;;;;29.10;20.20;;;;;;;7.72;87.85;100104.68;108882;1260;58168;-77
2023/04/11 00:24:01;;;;;;;23.40;17.10;;;;;;;7.69;88.03;100105.86;109212;1255;60326;-78
2023/04/11 00:26:28;;;;;;;20.00;16.90;;;;;;;7.74;87.53;100108.59;109177;1255;71628;-78
2023/04/11 00:28:56;;;;;;;22.10;17.50;;;;;;;7.72;87.21;100106.58;109211;1254;68205;-75
2023/04/11 00:31:23;;;;;;;21.40;16.60;;;;;;;7.69;87.32;100107.19;109170;1254;70474;-77
2023/04/11 00:33:50;;;;;;;22.10;17.50;;;;;;;7.76;87.19;100102.93;109197;1256;59972;-78
2023/04/11 00:36:16;;;;;;;23.40;18.40;;;;;;;7.76;86.79;100102.77;109183;1255;59973;-76
2023/04/11 00:38:50;;;;;;;21.80;17.00;;;;;;;7.73;86.78;100099.83;109186;1255;72770;-77
2023/04/11 00:41:17;;;;;;;19.90;17.50;;;;;;;7.79;86.55;100094.36;109249;1260;68192;-77
2023/04/11 00:43:48;;;;;;;23.80;18.80;;;;;;;7.78;86.27;100095.30;109229;1255;71755;-77
2023/04/11 00:46:15;;;;;;;24.30;16.90;;;;;;;7.74;86.26;100094.08;109200;1255;60870;-76
2023/04/11 00:48:42;;;;;;;23.90;17.30;;;;;;;7.77;85.79;100094.71;109209;1255;60250;-75
2023/04/11 00:51:20;;;;;;;24.30;18.70;;;;;;;7.73;85.66;100092.20;109234;1255;74062;-73
2023/04/11 00:53:48;;;;;;;20.90;17.20;;;;;;;7.67;85.89;100088.66;109208;1255;68628;-76
2023/04/11 00:56:15;;;;;;;23.80;19.00;;;;;;;7.73;85.53;100085.92;109035;1255;71160;-76
2023/04/11 00:58:43;;;;;;;20.20;17.90;;;;;;;7.72;85.43;100092.52;109206;1256;59456;-76
2023/04/11 01:01:09;;;;;;;22.50;19.10;;;;;;;7.65;85.43;100095.20;109078;1255;58781;-75
2023/04/11 01:03:40;;;;;;;22.80;17.10;;;;;;;7.65;85.22;100097.34;108993;1260;72767;-77
2023/04/11 01:06:16;;;;;;;19.60;15.80;;;;;;;7.70;85.02;100098.50;108895;1257;69458;-77
2023/04/11 01:08:43;;;;;;;20.50;17.50;;;;;;;7.65;85.36;100101.60;108944;1257;70343;-76
2023/04/11 01:11:11;;;;;;;23.10;18.20;;;;;;;7.58;85.43;100100.27;108989;1257;59453;-75
2023/04/11 01:13:39;;;;;;;18.10;15.20;;;;;;;7.59;85.60;100099.19;109183;1256;58173;-76
2023/04/11 01:16:09;;;;;;;19.90;16.10;;;;;;;7.66;85.37;100099.15;109145;1257;73604;-77
2023/04/11 01:18:36;;;;;;;22.10;17.80;;;;;;;7.63;85.38;100095.39;109009;1257;69436;-75
2023/04/11 01:21:03;;;;;;;22.40;16.50;;;;;;;7.58;85.42;100096.43;109109;1257;72469;-73
2023/04/11 01:23:33;;;;;;;23.30;17.10;;;;;;;7.58;85.16;100095.16;109136;1258;61835;-74
2023/04/11 01:26:00;;;;;;;22.40;19.30;;;;;;;7.64;84.98;100093.73;109230;1257;59702;-76
2023/04/11 01:28:27;;;;;;;24.40;19.70;;;;;;;7.62;84.83;100092.47;109142;1257;73687;-75
2023/04/11 01:30:54;;;;;;;24.20;18.60;;;;;;;7.56;84.99;100092.95;108114;1260;69293;-74
2023/04/11 01:33:23;;;;;;;26.30;17.90;;;;;;;7.56;85.04;100090.40;108589;1260;71719;-76
2023/04/11 01:35:50;;;;;;;24.90;19.30;;;;;;;7.62;84.88;100088.10;108409;1257;58710;-75
2023/04/11 01:38:22;;;;;;;29.10;23.00;;;;;;;7.57;84.82;100087.36;108715;1257;61039;-80
2023/04/11 01:40:50;;;;;;;27.00;21.40;;;;;;;7.49;85.01;100090.73;108874;1257;73177;-77
2023/04/11 01:43:17;;;;;;;24.70;21.20;;;;;;;7.47;85.02;100087.52;108061;1260;68433;-76
2023/04/11 01:45:44;;;;;;;30.50;24.80;;;;;;;7.52;84.90;100083.77;106001;1261;70936;-73
2023/04/11 01:48:13;;;;;;;36.50;30.80;;;;;;;7.47;84.87;100086.16;105667;1259;60388;-76
2023/04/11 01:50:41;;;;;;;50.30;43.00;;;;;;;7.39;84.92;100086.88;105579;1261;61813;-77
2023/04/11 01:53:09;;;;;;;39.70;34.90;;;;;;;7.37;85.06;100081.80;105561;1262;73934;-74
2023/04/11 01:55:36;;;;;;;54.30;42.90;;;;;;;7.40;84.76;100080.47;105763;1261;69281;-76
2023/04/11 01:58:03;;;;;;;66.30;53.70;;;;;;;7.34;84.98;100075.03;105400;1264;73213;-78
2023/04/11 02:00:31;;;;;;;54.20;42.30;;;;;;;7.23;85.15;100071.38;105744;1264;60467;-75
2023/04/11 02:02:58;;;;;;;34.40;28.60;;;;;;;7.19;85.28;100071.98;105828;1260;61408;-76
2023/04/11 02:05:25;;;;;;;43.40;35.60;;;;;;;7.21;85.40;100069.13;105725;1260;74643;-77
2023/04/11 02:07:57;;;;;;;40.60;31.80;;;;;;;7.16;85.63;100070.05;107220;1259;68910;-76
2023/04/11 02:10:25;;;;;;;38.20;27.20;;;;;;;7.08;85.69;100065.84;107302;1258;72689;-76
2023/04/11 02:12:52;;;;;;;40.20;31.20;;;;;;;7.08;85.69;100066.40;107038;1259;60494;-76
2023/04/11 02:15:29;;;;;;;45.70;38.20;;;;;;;7.12;85.33;100064.95;107194;1258;60521;-77
2023/04/11 02:18:00;;;;;;;76.30;59.60;;;;;;;7.06;85.40;100063.89;107339;1258;73902;-77
2023/04/11 02:20:28;;;;;;;69.40;54.20;;;;;;;6.99;85.76;100062.80;107335;1258;69359;-77
2023/04/11 02:23:04;;;;;;;61.90;51.10;;;;;;;6.99;85.42;100063.14;107240;1258;72138;-77
2023/04/11 02:25:33;;;;;;;64.00;49.80;;;;;;;7.04;85.28;100061.32;107423;1258;60452;-78
2023/04/11 02:28:00;;;;;;;47.90;40.40;;;;;;;6.98;85.34;100061.69;106902;1262;60300;-74
2023/04/11 02:30:28;;;;;;;52.10;40.60;;;;;;;6.84;85.17;100057.58;107013;1260;73536;-76
2023/04/11 02:32:57;;;;;;;51.50;42.10;;;;;;;6.78;85.58;100057.05;107061;1257;70439;-78
2023/04/11 02:35:25;;;;;;;50.00;41.90;;;;;;;6.79;85.64;100056.09;106958;1260;72560;-77
2023/04/11 02:37:54;;;;;;;54.50;47.20;;;;;;;6.73;86.04;100058.21;105679;1262;60459;-78
2023/04/11 02:40:23;;;;;;;55.60;45.70;;;;;;;6.65;86.30;100060.51;105810;1260;61561;-75
2023/04/11 02:42:50;;;;;;;57.30;46.80;;;;;;;6.61;86.32;100056.14;105740;1259;73719;-79
2023/04/11 02:45:17;;;;;;;59.10;47.70;;;;;;;6.63;86.27;100055.09;105722;1261;69621;-76
2023/04/11 02:47:44;;;;;;;57.30;44.50;;;;;;;6.57;86.46;100051.71;105744;1262;71587;-78
2023/04/11 02:50:14;;;;;;;56.70;48.70;;;;;;;6.49;86.78;100049.63;105841;1259;61304;-76
2023/04/11 02:52:46;;;;;;;56.40;44.80;;;;;;;6.49;86.94;100046.95;105766;1264;60432;-77
2023/04/11 02:55:16;;;;;;;50.10;42.40;;;;;;;6.56;86.86;100047.05;105725;1258;73845;-80
2023/04/11 02:57:46;;;;;;;51.20;43.10;;;;;;;6.54;87.03;100048.79;106318;1259;71293;-75
2023/04/11 03:00:18;;;;;;;55.10;43.80;;;;;;;6.48;87.12;100047.04;106308;1259;72684;-76
2023/04/11 03:02:51;;;;;;;54.90;41.90;;;;;;;6.47;86.84;100045.67;106148;1256;61767;-78
2023/04/11 03:05:22;;;;;;;46.60;38.70;;;;;;;6.50;86.64;100046.51;106303;1260;60654;-77
2023/04/11 03:07:51;;;;;;;51.00;43.20;;;;;;;6.42;86.62;100044.58;106696;1260;74893;-77
2023/04/11 03:10:23;;;;;;;47.40;36.60;;;;;;;6.33;87.12;100042.92;105841;1270;70288;-77
2023/04/11 03:12:50;;;;;;;44.80;37.90;;;;;;;6.31;87.21;100044.31;105841;1261;73684;-77
2023/04/11 03:15:17;;;;;;;46.40;39.00;;;;;;;6.34;86.97;100044.02;105765;1258;60412;-76
2023/04/11 03:17:45;;;;;;;47.00;39.90;;;;;;;6.30;87.21;100043.73;105800;1260;60545;-77
2023/04/11 03:20:18;;;;;;;51.90;43.50;;;;;;;6.20;87.23;100043.00;105621;1258;74630;-79
2023/04/11 03:22:48;;;;;;;52.00;42.80;;;;;;;6.14;87.17;100042.94;105712;1258;69203;-77
2023/04/11 03:25:15;;;;;;;48.20;36.10;;;;;;;6.17;86.94;100047.13;105550;1263;72801;-76
2023/04/11 03:27:44;;;;;;;53.80;45.20;;;;;;;6.12;87.09;100045.20;105772;1261;60537;-77
2023/04/11 03:30:15;;;;;;;53.00;41.20;;;;;;;6.06;87.98;100048.34;105558;1258;61329;-76
2023/04/11 03:32:45;;;;;;;53.70;46.20;;;;;;;6.07;88.08;100044.23;105524;1265;73963;-76
2023/04/11 03:35:13;;;;;;;43.50;35.80;;;;;;;6.16;87.78;100040.36;105460;1263;71222;-76
2023/04/11 03:37:44;;;;;;;45.80;39.00;;;;;;;6.16;87.70;100037.54;105570;1262;72623;-77
2023/04/11 03:40:11;;;;;;;48.60;35.60;;;;;;;6.12;87.70;100038.19;105413;1258;61656;-75
2023/04/11 03:42:45;;;;;;;49.00;35.80;;;;;;;6.14;87.61;100043.64;105616;1260;61253;-76
2023/04/11 03:45:14;;;;;;;46.50;35.60;;;;;;;6.24;87.40;100042.65;105470;1264;73565;-79
2023/04/11 03:47:42;;;;;;;57.30;43.10;;;;;;;6.25;87.61;100043.23;105435;1258;71532;-79
2023/04/11 03:50:10;;;;;;;58.90;41.50;;;;;;;6.21;87.39;100046.77;105621;1259;73586;-77
2023/04/11 03:52:41;;;;;;;51.30;37.30;;;;;;;6.21;87.48;100048.71;105602;1263;60790;-76
2023/04/11 03:55:11;;;;;;;44.80;35.70;;;;;;;6.34;87.53;100048.13;105793;1260;60458;-76
2023/04/11 03:57:38;;;;;;;49.20;37.00;;;;;;;6.44;87.83;100050.58;105867;1258;74926;-74
2023/04/11 04:00:07;;;;;;;61.40;45.30;;;;;;;6.51;88.00;100049.95;105841;1264;70300;-76
2023/04/11 04:03:01;;;;;;;43.70;34.60;;;;;;;6.65;87.79;100049.64;105814;1260;75084;-78
2023/04/11 04:05:28;;;;;;;44.20;37.20;;;;;;;6.79;87.75;100047.66;105697;1262;60526;-78
2023/04/11 04:07:56;;;;;;;56.30;43.60;;;;;;;6.85;88.03;100048.31;105611;1261;61057;-79
2023/04/11 04:10:38;;;;;;;53.20;42.50;;;;;;;6.87;87.80;100042.67;105560;1262;74719;-76
2023/04/11 04:13:04;;;;;;;53.20;41.20;;;;;;;6.92;87.18;100038.55;105513;1263;70432;-75
2023/04/11 04:15:41;;;;;;;52.00;43.80;;;;;;;7.02;86.68;100039.42;105450;1256;74416;-76
2023/04/11 04:18:09;;;;;;;49.10;42.80;;;;;;;7.10;87.02;100038.59;105498;1262;61870;-77
2023/04/11 04:20:46;;;;;;;47.30;38.20;;;;;;;7.19;87.09;100038.06;105642;1262;61460;-77
2023/04/11 04:23:16;;;;;;;42.00;34.70;;;;;;;7.36;86.86;100037.67;105533;1257;73282;-75
2023/04/11 04:37:43;;;;;;;27.00;23.20;;;;;;;8.28;84.84;100013.39;104542;1287;614159;-75
2023/04/11 04:40:19;;;;;;;24.00;20.80;;;;;;;8.54;82.50;100009.88;105519;1259;162501;-74
2023/04/11 04:43:07;;;;;;;27.50;23.50;;;;;;;8.43;81.63;100007.73;105699;1256;62507;-73
2023/04/11 04:45:39;;;;;;;29.10;22.20;;;;;;;8.29;81.26;100005.08;106258;1257;72499;-74
2023/04/11 04:48:07;;;;;;;29.90;23.00;;;;;;;8.31;81.24;100003.77;105856;1258;71582;-73
2023/04/11 04:50:34;;;;;;;30.40;26.20;;;;;;;8.30;80.77;100001.39;105630;1261;71965;-74
2023/04/11 04:53:06;;;;;;;36.00;31.30;;;;;;;8.20;80.59;99998.92;105439;1257;61171;-72
2023/04/11 04:55:33;;;;;;;38.10;31.40;;;;;;;8.12;80.96;99991.80;105654;1256;61234;-72
2023/04/11 04:58:00;;;;;;;47.00;35.10;;;;;;;8.18;81.14;99992.80;105722;1260;71818;-72
2023/04/11 05:00:32;;;;;;;42.70;35.60;;;;;;;8.21;81.31;99993.08;105716;1258;69539;-73
2023/04/11 05:03:04;;;;;;;43.60;36.50;;;;;;;8.18;81.07;99989.40;105850;1255;72709;-73
2023/04/11 05:05:31;;;;;;;40.90;32.60;;;;;;;8.20;81.34;99991.05;105791;1254;61683;-76
2023/04/11 05:07:59;;;;;;;37.30;31.60;;;;;;;8.30;80.93;99990.01;105821;1254;61267;-72
2023/04/11 05:10:27;;;;;;;31.90;28.40;;;;;;;8.37;80.49;99989.05;105708;1256;73778;-75
2023/04/11 05:12:57;;;;;;;30.00;25.10;;;;;;;8.38;81.18;99990.04;105764;1259;69621;-73
2023/04/11 05:15:24;;;;;;;28.80;24.40;;;;;;;8.40;81.00;99985.36;105718;1260;72453;-73
2023/04/11 05:17:52;;;;;;;23.90;21.00;;;;;;;8.51;80.58;99983.64;105793;1254;63131;-76
2023/04/11 05:20:20;;;;;;;26.10;22.40;;;;;;;8.57;80.19;99984.46;105882;1257;59748;-76
2023/04/11 05:22:49;;;;;;;25.70;20.00;;;;;;;8.58;79.91;99981.95;105844;1254;71986;-77
2023/04/11 05:25:17;;;;;;;28.50;21.60;;;;;;;8.60;79.52;99981.73;105795;1254;71216;-75
2023/04/11 05:27:45;;;;;;;23.80;20.80;;;;;;;8.74;79.74;99983.17;106016;1254;73911;-76
2023/04/11 05:30:12;;;;;;;27.50;20.40;;;;;;;8.86;79.89;99978.35;105777;1254;59644;-75
2023/04/11 05:32:49;;;;;;;22.20;19.00;;;;;;;8.92;79.37;99980.75;105728;1256;61367;-74
2023/04/11 05:35:17;;;;;;;21.30;17.80;;;;;;;8.93;77.72;99983.94;105659;1264;73858;-73
2023/04/11 05:37:51;;;;;;;21.50;17.60;;;;;;;9.05;77.53;99976.30;105660;1254;71285;-73
2023/04/11 05:40:19;;;;;;;21.00;17.20;;;;;;;9.10;77.04;99978.30;105558;1262;73109;-76
2023/04/11 05:42:48;;;;;;;23.00;18.00;;;;;;;9.11;76.58;99975.89;105495;1256;61573;-73
2023/04/11 05:45:17;;;;;;;21.40;17.50;;;;;;;9.15;76.71;99973.15;105826;1258;60823;-74
2023/04/11 05:47:45;;;;;;;23.30;16.70;;;;;;;9.23;75.85;99973.02;105572;1261;73244;-75
2023/04/11 05:50:13;;;;;;;19.10;16.40;;;;;;;9.37;75.69;99969.71;105860;1258;69313;-74
2023/04/11 05:52:43;;;;;;;19.20;16.70;;;;;;;9.44;75.32;99971.48;105689;1256;73771;-75
2023/04/11 05:55:11;;;;;;;21.60;16.00;;;;;;;9.48;75.60;99969.88;105525;1258;61608;-74
2023/04/11 05:57:40;;;;;;;22.60;16.40;;;;;;;9.51;75.87;99969.72;105608;1257;61358;-74
2023/04/11 06:00:13;;;;;;;20.80;15.40;;;;;;;9.55;75.67;99973.73;105785;1256;74069;-74
2023/04/11 06:02:41;;;;;;;23.50;16.10;;;;;;;9.69;75.42;99974.23;105869;1255;71227;-74
2023/04/11 06:05:12;;;;;;;20.40;16.20;;;;;;;9.76;74.94;99975.13;105715;1256;73333;-77
2023/04/11 06:07:40;;;;;;;21.40;16.20;;;;;;;9.81;74.30;99971.10;105654;1256;63233;-76
2023/04/11 06:10:07;;;;;;;17.90;15.40;;;;;;;9.87;74.14;99972.59;105785;1256;59641;-77
2023/04/11 06:12:40;;;;;;;22.90;16.10;;;;;;;9.94;73.84;99970.23;105563;1261;73121;-75
2023/04/11 06:15:10;;;;;;;19.00;15.60;;;;;;;9.99;72.77;99968.55;105610;1256;71652;-74
2023/04/11 06:17:38;;;;;;;18.10;16.20;;;;;;;10.07;73.50;99967.58;105549;1256;73613;-74
2023/04/11 06:20:07;;;;;;;18.80;14.90;;;;;;;10.17;73.41;99966.89;105698;1256;60981;-74
2023/04/11 06:22:34;;;;;;;22.80;15.10;;;;;;;10.31;72.90;99965.94;105774;1256;60455;-73
2023/04/11 06:25:01;;;;;;;19.50;15.20;;;;;;;10.41;72.81;99962.20;105573;1256;73883;-75
2023/04/11 06:27:30;;;;;;;21.50;15.30;;;;;;;10.50;73.69;99963.98;105526;1255;69279;-74
2023/04/11 06:29:58;;;;;;;18.00;15.30;;;;;;;10.62;73.14;99955.84;105420;1256;73097;-74
2023/04/11 06:32:26;;;;;;;16.80;15.00;;;;;;;10.73;72.71;99958.31;105482;1262;62086;-74
2023/04/11 06:34:53;;;;;;;17.40;14.40;;;;;;;10.83;71.97;99956.81;105795;1258;59922;-74
2023/04/11 06:37:20;;;;;;;15.90;14.20;;;;;;;10.91;71.25;99952.98;105552;1256;72462;-75
2023/04/11 06:39:46;;;;;;;15.70;14.10;;;;;;;10.99;70.96;99952.86;105419;1261;68733;-75
2023/04/11 06:42:14;;;;;;;17.80;13.90;;;;;;;11.06;70.64;99953.95;105573;1256;73881;-73
2023/04/11 06:44:44;;;;;;;15.00;13.00;;;;;;;11.11;69.86;99947.92;105606;1256;61729;-74
2023/04/11 06:47:12;;;;;;;16.70;13.70;;;;;;;11.18;69.92;99942.56;105600;1262;60162;-74
2023/04/11 06:49:40;;;;;;;17.20;13.40;;;;;;;11.26;69.63;99943.08;105784;1260;72958;-73
2023/04/11 06:52:08;;;;;;;13.70;12.20;;;;;;;11.35;68.23;99944.54;105688;1256;71391;-75
2023/04/11 06:54:36;;;;;;;18.60;13.30;;;;;;;11.41;68.81;99940.01;105478;1260;72331;-73
2023/04/11 06:57:03;;;;;;;14.90;12.70;;;;;;;11.46;68.31;99938.44;105581;1263;60393;-73
2023/04/11 06:59:32;;;;;;;12.80;11.40;;;;;;;11.55;67.99;99937.91;105553;1258;60811;-76
2023/04/11 07:01:59;;;;;;;10.60;9.30;;;;;;;11.66;67.50;99938.20;105544;1256;73781;-76
2023/04/11 07:04:27;;;;;;;8.70;7.90;;;;;;;11.75;66.62;99930.77;105571;1261;70704;-75
2023/04/11 07:06:59;;;;;;;8.60;7.10;;;;;;;11.93;65.38;99924.86;105593;1257;73709;-75
2023/04/11 07:09:28;;;;;;;10.90;7.70;;;;;;;12.05;64.61;99924.21;105543;1254;59802;-74
2023/04/11 07:11:55;;;;;;;11.50;7.00;;;;;;;12.14;64.35;99919.98;105563;1256;61399;-74
2023/04/11 07:14:25;;;;;;;8.30;6.40;;;;;;;12.25;64.02;99916.00;105537;1256;72551;-75
2023/04/11 07:16:53;;;;;;;9.20;7.40;;;;;;;12.36;64.13;99916.23;105747;1256;71272;-73
2023/04/11 07:19:20;;;;;;;11.50;7.40;;;;;;;12.48;63.64;99909.94;105637;1257;71963;-75
2023/04/11 07:21:48;;;;;;;8.50;6.60;;;;;;;12.60;63.05;99903.42;105380;1257;63237;-75
2023/04/11 07:24:17;;;;;;;11.00;7.00;;;;;;;12.70;61.98;99904.23;105567;1257;61096;-74
2023/04/11 07:26:45;;;;;;;10.10;7.50;;;;;;;12.77;60.91;99902.17;105442;1256;74072;-73
2023/04/11 07:29:12;;;;;;;10.40;6.80;;;;;;;12.84;61.73;99899.23;105467;1261;70132;-73
2023/04/11 07:31:43;;;;;;;6.90;6.20;;;;;;;12.90;60.40;99893.15;105486;1264;73706;-75
2023/04/11 07:34:10;;;;;;;8.90;7.20;;;;;;;12.97;59.96;99893.58;105602;1260;59685;-75
2023/04/11 07:36:38;;;;;;;7.70;6.20;;;;;;;13.01;59.34;99889.95;105521;1262;59605;-74
2023/04/11 07:39:08;;;;;;;7.90;6.70;;;;;;;13.06;58.92;99885.46;105668;1257;74054;-72
2023/04/11 07:41:38;;;;;;;8.40;6.70;;;;;;;13.07;58.33;99878.84;105668;1258;70283;-72
2023/04/11 07:44:06;;;;;;;8.60;6.60;;;;;;;13.08;57.83;99873.70;105765;1260;72030;-74
2023/04/11 07:46:34;;;;;;;8.20;6.60;;;;;;;13.10;57.79;99872.65;105709;1256;59686;-73
2023/04/11 07:49:01;;;;;;;9.40;6.40;;;;;;;13.16;57.03;99874.14;105866;1256;59709;-74
2023/04/11 07:51:28;;;;;;;7.20;6.10;;;;;;;13.20;56.50;99876.20;105835;1258;74013;-74
2023/04/11 07:53:57;;;;;;;10.90;6.80;;;;;;;13.23;57.75;99869.11;105626;1257;70507;-76
2023/04/11 07:56:24;;;;;;;8.80;6.40;;;;;;;13.26;57.60;99871.08;105668;1259;71725;-75
2023/04/11 07:58:51;;;;;;;10.40;7.30;;;;;;;13.27;56.50;99865.52;105733;1256;60545;-75
2023/04/11 08:01:23;;;;;;;12.70;6.90;;;;;;;13.28;55.80;99864.88;105511;1258;61492;-74
2023/04/11 08:03:52;;;;;;;8.00;6.00;;;;;;;13.31;56.21;99864.17;105678;1256;74030;-73
2023/04/11 08:06:20;;;;;;;7.30;6.20;;;;;;;13.36;56.97;99853.95;105675;1260;69432;-73
2023/04/11 08:08:50;;;;;;;10.70;7.10;;;;;;;13.41;56.66;99848.67;105622;1257;73668;-74
2023/04/11 08:11:17;;;;;;;8.60;6.70;;;;;;;13.46;56.66;99843.38;105603;1258;61592;-74
2023/04/11 08:13:44;;;;;;;8.10;6.30;;;;;;;13.54;56.09;99851.35;105716;1255;59608;-73
2023/04/11 08:16:14;;;;;;;9.10;6.70;;;;;;;13.63;55.62;99846.95;105514;1256;74056;-73
2023/04/11 08:18:41;;;;;;;7.70;6.30;;;;;;;13.71;56.31;99847.15;105579;1261;71386;-74
2023/04/11 08:21:10;;;;;;;9.40;6.40;;;;;;;13.80;54.60;99844.30;105584;1258;72878;-73
2023/04/11 08:23:38;;;;;;;11.20;6.70;;;;;;;13.90;54.69;99843.44;105545;1259;61973;-72
2023/04/11 08:26:06;;;;;;;10.70;6.00;;;;;;;14.00;54.71;99843.30;105577;1257;61819;-73
2023/04/11 08:28:33;;;;;;;8.70;6.40;;;;;;;14.10;54.35;99839.79;105747;1256;74210;-75
2023/04/11 08:31:01;;;;;;;6.70;6.00;;;;;;;14.20;53.84;99836.61;105778;1255;70870;-73
2023/04/11 08:33:29;;;;;;;9.90;7.30;;;;;;;14.26;53.74;99841.98;105977;1256;72721;-74
2023/04/11 08:35:56;;;;;;;9.30;6.40;;;;;;;14.32;53.54;99837.95;105612;1256;60576;-73
2023/04/11 08:38:25;;;;;;;8.90;6.10;;;;;;;14.38;53.69;99835.45;105618;1258;59720;-73
2023/04/11 08:40:52;;;;;;;9.70;7.20;;;;;;;14.45;53.63;99834.20;105682;1256;72872;-74
2023/04/11 08:43:19;;;;;;;7.20;6.30;;;;;;;14.56;53.66;99830.52;105645;1256;71630;-72
2023/04/11 08:45:46;;;;;;;8.30;6.20;;;;;;;14.67;53.28;99825.10;105782;1258;70798;-76
2023/04/11 08:48:16;;;;;;;11.90;7.20;;;;;;;14.77;53.38;99824.44;105536;1257;60499;-73
2023/04/11 08:50:42;;;;;;;10.40;6.30;;;;;;;14.93;53.16;99818.43;105628;1256;60416;-72
2023/04/11 08:53:20;;;;;;;9.50;6.40;;;;;;;15.07;52.43;99816.42;105561;1256;75050;-73
2023/04/11 08:55:47;;;;;;;7.70;6.50;;;;;;;15.17;52.27;99810.23;105822;1258;68348;-73
2023/04/11 08:58:14;;;;;;;8.50;6.60;;;;;;;15.25;51.65;99806.88;105689;1256;73723;-72
2023/04/11 09:00:41;;;;;;;9.00;7.10;;;;;;;15.32;51.38;99802.34;105556;1260;60557;-74
2023/04/11 09:03:09;;;;;;;9.80;6.90;;;;;;;15.41;51.21;99800.00;105779;1256;61085;-74
2023/04/11 09:05:39;;;;;;;6.70;5.70;;;;;;;15.55;51.72;99796.31;105568;1256;74519;-72
2023/04/11 09:08:08;;;;;;;8.20;6.30;;;;;;;15.76;50.80;99792.54;105733;1256;71637;-71
2023/04/11 09:10:36;;;;;;;7.80;5.50;;;;;;;15.99;50.54;99788.47;105634;1256;73657;-74
2023/04/11 09:13:22;;;;;;;9.20;6.10;;;;;;;16.27;50.56;99789.26;105548;1256;60445;-73
2023/04/11 09:16:02;;;;;;;10.50;6.90;;;;;;;16.62;49.85;99779.74;105553;1256;61236;-73
2023/04/11 09:18:30;;;;;;;8.70;5.60;;;;;;;16.94;49.36;99777.16;105639;1256;74111;-72
2023/04/11 09:20:59;;;;;;;8.00;6.10;;;;;;;17.23;48.35;99774.83;105722;1256;69686;-72
2023/04/11 09:23:26;;;;;;;7.20;5.40;;;;;;;17.44;48.10;99770.84;105632;1260;72892;-73
2023/04/11 09:25:54;;;;;;;8.90;5.90;;;;;;;17.62;46.59;99772.42;105741;1255;61455;-72
2023/04/11 09:28:21;;;;;;;13.70;5.70;;;;;;;17.71;46.81;99761.97;105528;1256;60429;-73
2023/04/11 09:30:50;;;;;;;9.00;6.40;;;;;;;17.80;47.00;99762.08;105853;1258;74787;-72
2023/04/11 09:33:23;;;;;;;9.00;6.10;;;;;;;17.90;46.93;99762.93;105596;1260;70541;-72
2023/04/11 09:35:52;;;;;;;9.60;6.20;;;;;;;17.91;45.99;99758.94;105822;1258;72651;-73
2023/04/11 09:38:29;;;;;;;8.20;6.10;;;;;;;17.85;46.11;99756.50;105761;1257;61545;-75
2023/04/11 09:40:57;;;;;;;7.50;5.50;;;;;;;17.88;46.03;99752.40;105483;1258;61042;-74
2023/04/11 09:43:24;;;;;;;8.30;5.70;;;;;;;18.03;46.73;99744.48;105636;1255;73849;-74
2023/04/11 09:46:10;;;;;;;8.50;5.80;;;;;;;18.36;46.44;99735.72;105812;1254;71067;-72
2023/04/11 09:48:39;;;;;;;6.60;5.10;;;;;;;18.72;45.94;99724.86;105422;1256;72929;-73
2023/04/11 09:51:09;;;;;;;7.30;5.90;;;;;;;18.97;45.42;99717.19;105441;1256;61630;-72
2023/04/11 09:53:37;;;;;;;6.80;5.80;;;;;;;19.13;44.96;99712.45;105603;1256;60427;-73
2023/04/11 09:56:07;;;;;;;7.40;6.10;;;;;;;19.18;44.75;99710.31;105482;1256;75307;-72
2023/04/11 09:58:36;;;;;;;6.90;5.60;;;;;;;19.22;45.28;99712.80;105494;1256;71363;-72
2023/04/11 10:01:06;;;;;;;7.70;6.20;;;;;;;19.28;44.05;99703.16;105567;1257;72711;-72
2023/04/11 10:03:35;;;;;;;8.50;5.70;;;;;;;19.29;44.42;99704.64;105475;1261;60439;-74
2023/04/11 10:06:08;;;;;;;7.00;4.90;;;;;;;19.39;44.79;99703.80;105761;1256;60895;-72
2023/04/11 10:08:35;;;;;;;9.20;5.40;;;;;;;19.47;44.43;99701.50;105487;1260;72689;-73
2023/04/11 10:11:08;;;;;;;9.40;5.80;;;;;;;19.69;44.53;99697.28;105711;1255;70215;-72
2023/04/11 10:13:56;;;;;;;11.10;6.20;;;;;;;20.00;44.56;99703.56;105672;1256;73260;-72
2023/04/11 10:16:25;;;;;;;7.80;5.20;;;;;;;20.38;43.56;99687.98;105442;1256;61166;-73
2023/04/11 10:18:52;;;;;;;7.30;5.20;;;;;;;20.53;43.15;99684.82;105505;1256;60629;-72
2023/04/11 10:21:41;;;;;;;7.10;4.30;;;;;;;20.69;43.02;99684.73;105585;1258;74040;-74
2023/04/11 10:24:09;;;;;;;7.00;5.20;;;;;;;20.76;42.09;99679.58;105696;1256;70737;-74
2023/04/11 10:26:57;;;;;;;5.70;4.30;;;;;;;20.66;42.21;99679.50;105792;1258;72915;-74
2023/04/11 10:29:27;;;;;;;8.80;4.30;;;;;;;20.44;42.36;99671.77;105739;1256;60398;-72
2023/04/11 10:32:16;;;;;;;7.90;4.90;;;;;;;20.33;42.31;99665.69;105716;1255;60370;-74
2023/04/11 10:34:49;;;;;;;8.10;4.50;;;;;;;20.14;42.76;99666.30;105698;1261;73909;-74
2023/04/11 10:37:17;;;;;;;6.50;4.80;;;;;;;20.10;42.84;99659.27;105641;1256;71317;-71
2023/04/11 10:39:46;;;;;;;6.40;4.80;;;;;;;20.27;42.82;99656.86;105674;1258;73853;-72
2023/04/11 10:42:30;;;;;;;6.60;4.10;;;;;;;20.46;42.36;99656.66;105683;1257;60807;-72
2023/04/11 10:45:14;;;;;;;5.60;4.80;;;;;;;20.51;42.07;99647.52;105559;1260;61145;-73
2023/04/11 10:47:42;;;;;;;8.30;4.20;;;;;;;20.36;41.81;99653.47;105642;1256;72953;-71
2023/04/11 10:50:29;;;;;;;5.90;4.10;;;;;;;20.16;41.91;99645.98;105652;1256;68533;-72
2023/04/11 10:52:59;;;;;;;6.80;4.80;;;;;;;19.93;41.95;99641.55;105510;1261;73630;-72
2023/04/11 10:55:27;;;;;;;8.10;4.40;;;;;;;19.90;41.92;99639.48;105702;1258;61874;-72
2023/04/11 10:58:06;;;;;;;6.70;4.30;;;;;;;20.07;42.42;99638.46;105531;1256;60531;-71
2023/04/11 11:00:46;;;;;;;6.00;4.20;;;;;;;20.55;42.42;99631.10;105744;1256;73919;-71
2023/04/11 11:03:24;;;;;;;5.70;3.90;;;;;;;21.05;41.73;99624.79;105689;1255;71263;-72
2023/04/11 11:05:59;;;;;;;7.60;4.80;;;;;;;21.23;41.50;99627.35;105452;1257;72412;-73
2023/04/11 11:08:30;;;;;;;6.30;4.60;;;;;;;21.15;41.21;99629.19;105575;1256;60390;-74
2023/04/11 11:11:01;;;;;;;6.50;4.50;;;;;;;20.97;41.24;99623.28;105878;1257;60439;-72
2023/04/11 11:13:51;;;;;;;6.40;4.90;;;;;;;20.71;41.29;99624.41;105897;1258;74885;-75
2023/04/11 11:16:19;;;;;;;6.50;4.50;;;;;;;20.42;41.54;99619.55;105690;1263;69158;-73
2023/04/11 11:18:53;;;;;;;6.00;4.70;;;;;;;20.35;42.00;99628.30;105856;1258;71621;-75
2023/04/11 11:21:23;;;;;;;6.10;4.30;;;;;;;20.42;41.62;99625.70;105881;1258;61231;-74
2023/04/11 11:23:54;;;;;;;7.70;4.40;;;;;;;20.49;41.23;99616.30;106263;1256;61065;-76
2023/04/11 11:26:23;;;;;;;6.30;4.50;;;;;;;20.56;40.43;99618.98;105842;1258;74888;-73
2023/04/11 11:28:50;;;;;;;4.90;4.30;;;;;;;20.53;40.76;99622.26;105777;1256;71223;-73
2023/04/11 11:31:17;;;;;;;6.00;4.40;;;;;;;20.55;40.78;99619.68;105753;1254;72664;-74
2023/04/11 11:33:44;;;;;;;8.20;4.70;;;;;;;20.56;40.85;99616.52;105709;1258;60561;-75
2023/04/11 11:36:11;;;;;;;6.40;4.10;;;;;;;20.46;40.78;99614.66;105796;1256;60449;-75
2023/04/11 11:38:38;;;;;;;6.40;4.50;;;;;;;20.24;41.19;99605.55;105715;1261;74440;-75
2023/04/11 11:41:05;;;;;;;4.30;3.90;;;;;;;19.98;41.38;99603.23;105657;1261;70609;-76